sensor_id;sensor_type;location;lat;lon;timestamp;P1;durP1;ratioP1;P2;durP2;ratioP2
22017;SDS011;11173;51.050;7.108;2024-02-26T00:07:09;0.60;;;0.60;;
22017;SDS011;11173;51.050;7.108;2024-02-26T00:17:28;1.40;;;0.77;;
22017;SDS011;11173;51.050;7.108;2024-02-26T00:27:47;0.60;;;0.60;;
22017;SDS011;11173;51.050;7.108;2024-02-26T00:38:06;0.60;;;0.60;;
22017;SDS011;11173;51.050;7.108;2024-02-26T00:48:25;0.70;;;0.70;;
22017;SDS011;11173;51.050;7.108;2024-02-26T00:58:44;0.60;;;0.60;;
22017;SDS011;11173;51.050;7.108;2024-02-26T01:09:03;0.83;;;0.80;;
22017;SDS011;11173;51.050;7.108;2024-02-26T01:19:22;1.10;;;0.80;;
22017;SDS011;11173;51.050;7.108;2024-02-26T01:29:41;0.60;;;0.60;;
22017;SDS011;11173;51.050;7.108;2024-02-26T01:40:00;0.73;;;0.73;;
22017;SDS011;11173;51.050;7.108;2024-02-26T01:50:22;0.90;;;0.70;;
22017;SDS011;11173;51.050;7.108;2024-02-26T02:00:42;1.17;;;0.85;;
22017;SDS011;11173;51.050;7.108;2024-02-26T02:11:01;0.80;;;0.80;;
22017;SDS011;11173;51.050;7.108;2024-02-26T02:21:20;0.70;;;0.70;;
22017;SDS011;11173;51.050;7.108;2024-02-26T02:31:39;1.00;;;1.00;;
22017;SDS011;11173;51.050;7.108;2024-02-26T02:41:58;0.80;;;0.80;;
22017;SDS011;11173;51.050;7.108;2024-02-26T02:52:17;2.30;;;0.93;;
22017;SDS011;11173;51.050;7.108;2024-02-26T03:02:36;0.83;;;0.80;;
22017;SDS011;11173;51.050;7.108;2024-02-26T03:12:55;1.00;;;0.87;;
22017;SDS011;11173;51.050;7.108;2024-02-26T03:23:14;0.80;;;0.80;;
22017;SDS011;11173;51.050;7.108;2024-02-26T03:33:35;0.80;;;0.80;;
22017;SDS011;11173;51.050;7.108;2024-02-26T03:43:54;1.47;;;0.63;;
22017;SDS011;11173;51.050;7.108;2024-02-26T03:54:13;1.73;;;0.70;;
22017;SDS011;11173;51.050;7.108;2024-02-26T04:14:51;0.83;;;0.83;;
22017;SDS011;11173;51.050;7.108;2024-02-26T04:25:11;0.93;;;0.90;;
22017;SDS011;11173;51.050;7.108;2024-02-26T04:45:49;0.85;;;0.70;;
22017;SDS011;11173;51.050;7.108;2024-02-26T04:56:08;0.70;;;0.70;;
22017;SDS011;11173;51.050;7.108;2024-02-26T05:06:27;0.63;;;0.63;;
22017;SDS011;11173;51.050;7.108;2024-02-26T05:16:46;0.70;;;0.70;;
22017;SDS011;11173;51.050;7.108;2024-02-26T05:37:24;0.70;;;0.70;;
22017;SDS011;11173;51.050;7.108;2024-02-26T05:47:43;0.90;;;0.90;;
22017;SDS011;11173;51.050;7.108;2024-02-26T05:58:02;1.70;;;1.10;;
22017;SDS011;11173;51.050;7.108;2024-02-26T06:08:21;2.30;;;0.90;;
22017;SDS011;11173;51.050;7.108;2024-02-26T06:18:41;0.95;;;0.95;;
22017;SDS011;11173;51.050;7.108;2024-02-26T06:29:00;1.38;;;0.80;;
22017;SDS011;11173;51.050;7.108;2024-02-26T06:39:19;0.90;;;0.90;;
22017;SDS011;11173;51.050;7.108;2024-02-26T06:49:38;1.50;;;1.40;;
22017;SDS011;11173;51.050;7.108;2024-02-26T06:59:57;1.17;;;1.13;;
22017;SDS011;11173;51.050;7.108;2024-02-26T07:10:18;2.58;;;1.27;;
22017;SDS011;11173;51.050;7.108;2024-02-26T07:20:37;1.70;;;1.43;;
22017;SDS011;11173;51.050;7.108;2024-02-26T07:30:56;2.13;;;1.27;;
22017;SDS011;11173;51.050;7.108;2024-02-26T07:41:14;3.77;;;1.50;;
22017;SDS011;11173;51.050;7.108;2024-02-26T07:51:33;1.20;;;1.20;;
22017;SDS011;11173;51.050;7.108;2024-02-26T08:01:53;1.40;;;1.30;;
22017;SDS011;11173;51.050;7.108;2024-02-26T08:12:12;2.80;;;1.47;;
22017;SDS011;11173;51.050;7.108;2024-02-26T08:22:31;2.87;;;1.43;;
22017;SDS011;11173;51.050;7.108;2024-02-26T08:32:50;1.30;;;1.10;;
22017;SDS011;11173;51.050;7.108;2024-02-26T08:43:09;4.67;;;1.77;;
22017;SDS011;11173;51.050;7.108;2024-02-26T09:03:47;1.00;;;1.00;;
22017;SDS011;11173;51.050;7.108;2024-02-26T09:14:06;2.33;;;1.57;;
22017;SDS011;11173;51.050;7.108;2024-02-26T09:24:25;1.47;;;1.37;;
22017;SDS011;11173;51.050;7.108;2024-02-26T09:34:44;1.85;;;1.50;;
22017;SDS011;11173;51.050;7.108;2024-02-26T09:45:05;1.67;;;1.40;;
22017;SDS011;11173;51.050;7.108;2024-02-26T09:55:26;2.10;;;1.38;;
22017;SDS011;11173;51.050;7.108;2024-02-26T10:05:45;2.80;;;1.50;;
22017;SDS011;11173;51.050;7.108;2024-02-26T10:16:04;1.60;;;1.50;;
22017;SDS011;11173;51.050;7.108;2024-02-26T10:26:24;1.85;;;1.75;;
22017;SDS011;11173;51.050;7.108;2024-02-26T10:36:44;2.80;;;1.97;;
22017;SDS011;11173;51.050;7.108;2024-02-26T10:47:03;1.63;;;1.53;;
22017;SDS011;11173;51.050;7.108;2024-02-26T10:57:21;1.60;;;1.50;;
22017;SDS011;11173;51.050;7.108;2024-02-26T11:07:41;1.83;;;1.73;;
22017;SDS011;11173;51.050;7.108;2024-02-26T11:18:00;2.50;;;1.67;;
22017;SDS011;11173;51.050;7.108;2024-02-26T11:28:19;1.40;;;1.30;;
22017;SDS011;11173;51.050;7.108;2024-02-26T11:38:39;3.80;;;1.38;;
22017;SDS011;11173;51.050;7.108;2024-02-26T11:49:03;1.92;;;1.83;;
22017;SDS011;11173;51.050;7.108;2024-02-26T11:59:37;1.77;;;1.67;;
22017;SDS011;11173;51.050;7.108;2024-02-26T12:10:13;1.70;;;1.60;;
22017;SDS011;11173;51.050;7.108;2024-02-26T12:20:31;1.48;;;1.38;;
22017;SDS011;11173;51.050;7.108;2024-02-26T12:30:50;2.73;;;2.00;;
22017;SDS011;11173;51.050;7.108;2024-02-26T12:41:13;2.00;;;1.80;;
22017;SDS011;11173;51.050;7.108;2024-02-26T12:51:33;1.95;;;1.73;;
22017;SDS011;11173;51.050;7.108;2024-02-26T13:01:52;2.20;;;1.90;;
22017;SDS011;11173;51.050;7.108;2024-02-26T13:12:11;4.33;;;2.47;;
22017;SDS011;11173;51.050;7.108;2024-02-26T13:22:31;3.13;;;2.83;;
22017;SDS011;11173;51.050;7.108;2024-02-26T13:32:51;4.47;;;3.22;;
22017;SDS011;11173;51.050;7.108;2024-02-26T13:43:10;4.60;;;4.07;;
22017;SDS011;11173;51.050;7.108;2024-02-26T13:53:29;5.17;;;4.60;;
22017;SDS011;11173;51.050;7.108;2024-02-26T14:03:48;7.80;;;6.20;;
22017;SDS011;11173;51.050;7.108;2024-02-26T14:14:07;5.40;;;4.87;;
22017;SDS011;11173;51.050;7.108;2024-02-26T14:24:26;9.23;;;6.23;;
22017;SDS011;11173;51.050;7.108;2024-02-26T14:34:45;7.13;;;6.20;;
22017;SDS011;11173;51.050;7.108;2024-02-26T14:45:04;7.63;;;6.47;;
22017;SDS011;11173;51.050;7.108;2024-02-26T14:55:25;6.63;;;5.97;;
22017;SDS011;11173;51.050;7.108;2024-02-26T15:05:44;8.60;;;7.70;;
22017;SDS011;11173;51.050;7.108;2024-02-26T15:16:03;6.57;;;5.97;;
22017;SDS011;11173;51.050;7.108;2024-02-26T15:26:22;6.73;;;6.03;;
22017;SDS011;11173;51.050;7.108;2024-02-26T15:36:41;5.90;;;5.30;;
22017;SDS011;11173;51.050;7.108;2024-02-26T15:47:00;6.30;;;5.53;;
22017;SDS011;11173;51.050;7.108;2024-02-26T15:57:19;7.05;;;5.32;;
22017;SDS011;11173;51.050;7.108;2024-02-26T16:07:52;6.10;;;5.18;;
22017;SDS011;11173;51.050;7.108;2024-02-26T16:18:11;6.45;;;5.75;;
22017;SDS011;11173;51.050;7.108;2024-02-26T16:28:30;6.57;;;5.87;;
22017;SDS011;11173;51.050;7.108;2024-02-26T16:38:49;8.13;;;6.00;;
22017;SDS011;11173;51.050;7.108;2024-02-26T16:49:08;8.30;;;7.03;;
22017;SDS011;11173;51.050;7.108;2024-02-26T16:59:27;8.03;;;7.13;;
22017;SDS011;11173;51.050;7.108;2024-02-26T17:09:46;10.40;;;7.03;;
22017;SDS011;11173;51.050;7.108;2024-02-26T17:20:05;8.97;;;6.90;;
22017;SDS011;11173;51.050;7.108;2024-02-26T17:30:24;6.43;;;5.77;;
22017;SDS011;11173;51.050;7.108;2024-02-26T17:40:43;6.93;;;5.37;;
22017;SDS011;11173;51.050;7.108;2024-02-26T17:51:02;6.17;;;5.20;;
22017;SDS011;11173;51.050;7.108;2024-02-26T18:01:22;7.25;;;5.53;;
22017;SDS011;11173;51.050;7.108;2024-02-26T18:11:43;5.88;;;5.35;;
22017;SDS011;11173;51.050;7.108;2024-02-26T18:22:02;6.32;;;5.70;;
22017;SDS011;11173;51.050;7.108;2024-02-26T18:32:23;6.10;;;5.50;;
22017;SDS011;11173;51.050;7.108;2024-02-26T18:42:41;8.93;;;6.80;;
22017;SDS011;11173;51.050;7.108;2024-02-26T18:53:00;7.30;;;6.63;;
22017;SDS011;11173;51.050;7.108;2024-02-26T19:03:20;8.70;;;6.68;;
22017;SDS011;11173;51.050;7.108;2024-02-26T19:13:39;6.33;;;5.73;;
22017;SDS011;11173;51.050;7.108;2024-02-26T19:23:58;8.60;;;6.13;;
22017;SDS011;11173;51.050;7.108;2024-02-26T19:34:17;8.47;;;5.97;;
22017;SDS011;11173;51.050;7.108;2024-02-26T19:44:36;5.67;;;5.17;;
22017;SDS011;11173;51.050;7.108;2024-02-26T19:54:56;5.53;;;4.70;;
22017;SDS011;11173;51.050;7.108;2024-02-26T20:05:15;5.63;;;4.40;;
22017;SDS011;11173;51.050;7.108;2024-02-26T20:15:34;4.47;;;4.17;;
22017;SDS011;11173;51.050;7.108;2024-02-26T20:25:53;4.87;;;4.40;;
22017;SDS011;11173;51.050;7.108;2024-02-26T20:36:13;4.10;;;3.70;;
22017;SDS011;11173;51.050;7.108;2024-02-26T20:46:32;3.17;;;2.97;;
22017;SDS011;11173;51.050;7.108;2024-02-26T20:56:51;3.40;;;3.10;;
22017;SDS011;11173;51.050;7.108;2024-02-26T21:07:10;4.07;;;3.23;;
22017;SDS011;11173;51.050;7.108;2024-02-26T21:17:29;2.87;;;2.67;;
22017;SDS011;11173;51.050;7.108;2024-02-26T21:27:48;5.23;;;2.50;;
22017;SDS011;11173;51.050;7.108;2024-02-26T21:38:07;2.83;;;2.63;;
22017;SDS011;11173;51.050;7.108;2024-02-26T21:48:26;3.03;;;2.80;;
22017;SDS011;11173;51.050;7.108;2024-02-26T21:58:45;3.27;;;2.97;;
22017;SDS011;11173;51.050;7.108;2024-02-26T22:09:04;3.47;;;3.17;;
22017;SDS011;11173;51.050;7.108;2024-02-26T22:19:23;4.47;;;3.55;;
22017;SDS011;11173;51.050;7.108;2024-02-26T22:29:42;4.43;;;3.83;;
22017;SDS011;11173;51.050;7.108;2024-02-26T22:40:01;5.13;;;4.00;;
22017;SDS011;11173;51.050;7.108;2024-02-26T22:50:20;5.65;;;4.45;;
22017;SDS011;11173;51.050;7.108;2024-02-26T23:00:39;4.80;;;4.20;;
22017;SDS011;11173;51.050;7.108;2024-02-26T23:10:58;5.13;;;4.73;;
22017;SDS011;11173;51.050;7.108;2024-02-26T23:21:19;3.90;;;3.60;;
22017;SDS011;11173;51.050;7.108;2024-02-26T23:31:38;4.23;;;3.90;;
22017;SDS011;11173;51.050;7.108;2024-02-26T23:41:57;3.97;;;3.67;;
22017;SDS011;11173;51.050;7.108;2024-02-26T23:52:16;4.20;;;3.90;;
